sensor_id;sensor_type;location;lat;lon;timestamp;pressure;altitude;pressure_sealevel;temperature;humidity
67697;BME280;54486;51.442;6.778;2023-02-28T00:02:24;102885.88;;;0.42;80.24
67697;BME280;54486;51.442;6.778;2023-02-28T00:04:51;102873.72;;;0.39;80.62
67697;BME280;54486;51.442;6.778;2023-02-28T00:07:29;102886.16;;;0.33;80.46
67697;BME280;54486;51.442;6.778;2023-02-28T00:09:57;102876.50;;;0.42;80.43
67697;BME280;54486;51.442;6.778;2023-02-28T00:12:24;102873.22;;;0.32;80.50
67697;BME280;54486;51.442;6.778;2023-02-28T00:14:51;102879.03;;;0.29;80.65
67697;BME280;54486;51.442;6.778;2023-02-28T00:17:18;102882.81;;;0.34;80.60
67697;BME280;54486;51.442;6.778;2023-02-28T00:19:48;102886.22;;;0.22;81.05
67697;BME280;54486;51.442;6.778;2023-02-28T00:22:15;102885.53;;;0.24;80.87
67697;BME280;54486;51.442;6.778;2023-02-28T00:24:44;102878.00;;;0.14;81.48
67697;BME280;54486;51.442;6.778;2023-02-28T00:27:11;102881.53;;;0.16;81.74
67697;BME280;54486;51.442;6.778;2023-02-28T00:29:38;102879.09;;;0.18;81.96
67697;BME280;54486;51.442;6.778;2023-02-28T00:32:05;102876.19;;;0.13;82.33
67697;BME280;54486;51.442;6.778;2023-02-28T00:34:33;102882.22;;;0.14;82.15
67697;BME280;54486;51.442;6.778;2023-02-28T00:37:07;102877.38;;;0.05;81.93
67697;BME280;54486;51.442;6.778;2023-02-28T00:39:36;102886.06;;;0.07;82.61
67697;BME280;54486;51.442;6.778;2023-02-28T00:42:04;102880.91;;;0.07;82.97
67697;BME280;54486;51.442;6.778;2023-02-28T00:44:31;102883.19;;;0.03;82.59
67697;BME280;54486;51.442;6.778;2023-02-28T00:46:58;102890.78;;;0.01;82.75
67697;BME280;54486;51.442;6.778;2023-02-28T00:49:26;102886.19;;;-0.03;82.89
67697;BME280;54486;51.442;6.778;2023-02-28T00:51:54;102888.19;;;0.01;82.92
67697;BME280;54486;51.442;6.778;2023-02-28T00:54:21;102894.78;;;-0.03;83.07
67697;BME280;54486;51.442;6.778;2023-02-28T00:56:49;102885.00;;;-0.08;83.37
67697;BME280;54486;51.442;6.778;2023-02-28T00:59:16;102890.13;;;-0.08;83.14
67697;BME280;54486;51.442;6.778;2023-02-28T01:01:45;102898.81;;;-0.06;83.18
67697;BME280;54486;51.442;6.778;2023-02-28T01:04:13;102892.91;;;-0.05;83.25
67697;BME280;54486;51.442;6.778;2023-02-28T01:06:40;102896.13;;;0.04;82.93
67697;BME280;54486;51.442;6.778;2023-02-28T01:09:07;102889.00;;;0.00;83.52
67697;BME280;54486;51.442;6.778;2023-02-28T01:11:34;102893.91;;;-0.03;83.28
67697;BME280;54486;51.442;6.778;2023-02-28T01:14:01;102903.09;;;-0.07;83.16
67697;BME280;54486;51.442;6.778;2023-02-28T01:16:28;102897.06;;;-0.07;82.91
67697;BME280;54486;51.442;6.778;2023-02-28T01:18:55;102903.38;;;-0.02;82.83
67697;BME280;54486;51.442;6.778;2023-02-28T01:21:23;102896.38;;;-0.05;82.85
67697;BME280;54486;51.442;6.778;2023-02-28T01:23:50;102899.50;;;0.03;82.61
67697;BME280;54486;51.442;6.778;2023-02-28T01:26:19;102902.06;;;0.03;82.66
67697;BME280;54486;51.442;6.778;2023-02-28T01:28:46;102896.47;;;-0.03;82.48
67697;BME280;54486;51.442;6.778;2023-02-28T01:31:14;102897.47;;;-0.01;82.45
67697;BME280;54486;51.442;6.778;2023-02-28T01:33:41;102900.63;;;-0.05;81.92
67697;BME280;54486;51.442;6.778;2023-02-28T01:36:10;102899.72;;;-0.06;82.11
67697;BME280;54486;51.442;6.778;2023-02-28T01:38:37;102901.59;;;-0.03;82.37
67697;BME280;54486;51.442;6.778;2023-02-28T01:41:05;102895.47;;;-0.05;82.33
67697;BME280;54486;51.442;6.778;2023-02-28T01:46:10;102892.34;;;-0.01;82.20
67697;BME280;54486;51.442;6.778;2023-02-28T01:51:15;102886.38;;;-0.13;82.45
67697;BME280;54486;51.442;6.778;2023-02-28T01:53:45;102882.78;;;-0.15;82.18
67697;BME280;54486;51.442;6.778;2023-02-28T01:56:16;102886.16;;;-0.16;82.49
67697;BME280;54486;51.442;6.778;2023-02-28T01:58:48;102884.16;;;-0.20;82.08
67697;BME280;54486;51.442;6.778;2023-02-28T02:01:15;102880.91;;;-0.18;82.54
67697;BME280;54486;51.442;6.778;2023-02-28T02:03:48;102879.72;;;-0.23;82.25
67697;BME280;54486;51.442;6.778;2023-02-28T02:06:22;102876.56;;;-0.19;82.21
67697;BME280;54486;51.442;6.778;2023-02-28T02:08:50;102875.69;;;-0.19;81.73
67697;BME280;54486;51.442;6.778;2023-02-28T02:11:17;102867.34;;;-0.28;82.28
67697;BME280;54486;51.442;6.778;2023-02-28T02:14:09;102868.13;;;-0.29;82.19
67697;BME280;54486;51.442;6.778;2023-02-28T02:16:51;102863.22;;;-0.26;82.13
67697;BME280;54486;51.442;6.778;2023-02-28T02:25:05;102864.13;;;-0.26;82.04
67697;BME280;54486;51.442;6.778;2023-02-28T02:30:24;102852.59;;;-0.19;81.97
67697;BME280;54486;51.442;6.778;2023-02-28T02:35:33;102860.06;;;-0.22;81.84
67697;BME280;54486;51.442;6.778;2023-02-28T02:40:37;102855.41;;;-0.28;81.97
67697;BME280;54486;51.442;6.778;2023-02-28T02:43:07;102855.19;;;-0.31;82.19
67697;BME280;54486;51.442;6.778;2023-02-28T02:45:37;102859.00;;;-0.37;82.15
67697;BME280;54486;51.442;6.778;2023-02-28T02:48:07;102860.38;;;-0.42;82.66
67697;BME280;54486;51.442;6.778;2023-02-28T02:50:41;102853.94;;;-0.24;82.53
67697;BME280;54486;51.442;6.778;2023-02-28T02:53:09;102869.03;;;-0.40;81.94
67697;BME280;54486;51.442;6.778;2023-02-28T02:55:38;102861.06;;;-0.20;81.74
67697;BME280;54486;51.442;6.778;2023-02-28T02:58:08;102859.28;;;-0.21;82.03
67697;BME280;54486;51.442;6.778;2023-02-28T03:00:41;102859.97;;;-0.24;81.20
67697;BME280;54486;51.442;6.778;2023-02-28T03:03:09;102865.88;;;-0.25;81.68
67697;BME280;54486;51.442;6.778;2023-02-28T03:05:42;102863.00;;;-0.29;81.55
67697;BME280;54486;51.442;6.778;2023-02-28T03:08:11;102867.72;;;-0.35;81.58
67697;BME280;54486;51.442;6.778;2023-02-28T03:10:44;102864.97;;;-0.25;80.87
67697;BME280;54486;51.442;6.778;2023-02-28T03:18:36;102852.59;;;-0.56;81.49
67697;BME280;54486;51.442;6.778;2023-02-28T03:23:45;102850.72;;;-0.58;82.73
67697;BME280;54486;51.442;6.778;2023-02-28T03:26:24;102851.16;;;-0.64;83.04
67697;BME280;54486;51.442;6.778;2023-02-28T03:29:02;102853.50;;;-0.67;83.03
67697;BME280;54486;51.442;6.778;2023-02-28T03:31:31;102861.78;;;-0.71;83.03
67697;BME280;54486;51.442;6.778;2023-02-28T03:36:28;102857.66;;;-0.80;83.47
67697;BME280;54486;51.442;6.778;2023-02-28T03:39:02;102867.56;;;-0.85;83.66
67697;BME280;54486;51.442;6.778;2023-02-28T03:42:04;102864.03;;;-0.87;83.83
67697;BME280;54486;51.442;6.778;2023-02-28T03:44:38;102862.34;;;-0.86;84.01
67697;BME280;54486;51.442;6.778;2023-02-28T03:47:08;102871.28;;;-0.93;83.89
67697;BME280;54486;51.442;6.778;2023-02-28T03:49:45;102874.72;;;-0.81;83.73
67697;BME280;54486;51.442;6.778;2023-02-28T03:52:15;102869.56;;;-0.92;84.31
67697;BME280;54486;51.442;6.778;2023-02-28T03:54:45;102872.69;;;-0.85;83.76
67697;BME280;54486;51.442;6.778;2023-02-28T03:57:18;102866.00;;;-0.83;83.52
67697;BME280;54486;51.442;6.778;2023-02-28T03:59:49;102866.91;;;-0.94;84.01
67697;BME280;54486;51.442;6.778;2023-02-28T04:02:19;102866.47;;;-0.77;83.18
67697;BME280;54486;51.442;6.778;2023-02-28T04:04:46;102872.91;;;-0.82;83.52
67697;BME280;54486;51.442;6.778;2023-02-28T04:07:15;102866.00;;;-0.83;83.68
67697;BME280;54486;51.442;6.778;2023-02-28T04:09:41;102867.91;;;-0.92;83.95
67697;BME280;54486;51.442;6.778;2023-02-28T04:12:09;102867.34;;;-0.88;83.95
67697;BME280;54486;51.442;6.778;2023-02-28T04:14:35;102863.59;;;-0.93;84.03
67697;BME280;54486;51.442;6.778;2023-02-28T04:17:02;102860.44;;;-0.89;83.88
67697;BME280;54486;51.442;6.778;2023-02-28T04:19:29;102864.91;;;-0.98;84.56
67697;BME280;54486;51.442;6.778;2023-02-28T04:21:56;102869.81;;;-1.01;84.11
67697;BME280;54486;51.442;6.778;2023-02-28T04:24:24;102872.69;;;-1.08;84.67
67697;BME280;54486;51.442;6.778;2023-02-28T04:26:53;102871.38;;;-1.03;84.49
67697;BME280;54486;51.442;6.778;2023-02-28T04:29:27;102878.84;;;-1.06;83.97
67697;BME280;54486;51.442;6.778;2023-02-28T04:31:55;102879.84;;;-1.16;84.24
67697;BME280;54486;51.442;6.778;2023-02-28T04:34:25;102878.72;;;-1.19;84.23
67697;BME280;54486;51.442;6.778;2023-02-28T04:36:52;102874.91;;;-1.24;84.50
67697;BME280;54486;51.442;6.778;2023-02-28T04:39:38;102880.50;;;-1.18;84.40
67697;BME280;54486;51.442;6.778;2023-02-28T04:42:06;102882.28;;;-1.17;84.49
67697;BME280;54486;51.442;6.778;2023-02-28T04:44:32;102891.75;;;-1.16;84.62
67697;BME280;54486;51.442;6.778;2023-02-28T04:47:00;102886.94;;;-1.23;84.77
67697;BME280;54486;51.442;6.778;2023-02-28T04:49:27;102881.16;;;-1.21;84.54
67697;BME280;54486;51.442;6.778;2023-02-28T04:51:54;102891.63;;;-1.18;84.49
67697;BME280;54486;51.442;6.778;2023-02-28T04:54:22;102888.53;;;-1.25;84.48
67697;BME280;54486;51.442;6.778;2023-02-28T04:56:50;102888.53;;;-1.25;83.90
67697;BME280;54486;51.442;6.778;2023-02-28T04:59:17;102887.63;;;-1.14;83.95
67697;BME280;54486;51.442;6.778;2023-02-28T05:01:48;102890.84;;;-1.17;83.90
67697;BME280;54486;51.442;6.778;2023-02-28T05:04:15;102896.97;;;-1.26;84.05
67697;BME280;54486;51.442;6.778;2023-02-28T05:06:43;102889.59;;;-1.33;84.47
67697;BME280;54486;51.442;6.778;2023-02-28T05:09:10;102895.84;;;-1.41;85.39
67697;BME280;54486;51.442;6.778;2023-02-28T05:11:40;102900.06;;;-1.42;84.91
67697;BME280;54486;51.442;6.778;2023-02-28T05:14:12;102890.72;;;-1.41;85.08
67697;BME280;54486;51.442;6.778;2023-02-28T05:16:39;102897.81;;;-1.49;85.00
67697;BME280;54486;51.442;6.778;2023-02-28T05:19:07;102894.94;;;-1.53;85.42
67697;BME280;54486;51.442;6.778;2023-02-28T05:21:35;102892.75;;;-1.37;84.69
67697;BME280;54486;51.442;6.778;2023-02-28T05:24:03;102897.59;;;-1.40;84.79
67697;BME280;54486;51.442;6.778;2023-02-28T05:26:33;102901.41;;;-1.47;85.61
67697;BME280;54486;51.442;6.778;2023-02-28T05:29:00;102900.41;;;-1.37;84.79
67697;BME280;54486;51.442;6.778;2023-02-28T05:31:27;102902.97;;;-1.37;84.40
67697;BME280;54486;51.442;6.778;2023-02-28T05:33:55;102901.19;;;-1.38;84.72
67697;BME280;54486;51.442;6.778;2023-02-28T05:36:22;102899.84;;;-1.33;84.21
67697;BME280;54486;51.442;6.778;2023-02-28T05:38:49;102904.97;;;-1.33;84.20
67697;BME280;54486;51.442;6.778;2023-02-28T05:41:17;102907.38;;;-1.46;84.60
67697;BME280;54486;51.442;6.778;2023-02-28T05:43:46;102907.84;;;-1.40;84.63
67697;BME280;54486;51.442;6.778;2023-02-28T05:46:13;102904.06;;;-1.45;84.82
67697;BME280;54486;51.442;6.778;2023-02-28T05:48:41;102912.50;;;-1.46;84.23
67697;BME280;54486;51.442;6.778;2023-02-28T05:51:09;102918.09;;;-1.40;84.32
67697;BME280;54486;51.442;6.778;2023-02-28T05:53:36;102919.88;;;-1.39;83.69
67697;BME280;54486;51.442;6.778;2023-02-28T05:56:03;102916.78;;;-1.35;83.02
67697;BME280;54486;51.442;6.778;2023-02-28T05:58:30;102918.09;;;-1.40;83.07
67697;BME280;54486;51.442;6.778;2023-02-28T06:00:59;102924.09;;;-1.51;83.94
67697;BME280;54486;51.442;6.778;2023-02-28T06:03:27;102919.63;;;-1.54;83.70
67697;BME280;54486;51.442;6.778;2023-02-28T06:05:54;102916.47;;;-1.62;84.56
67697;BME280;54486;51.442;6.778;2023-02-28T06:08:21;102922.59;;;-1.60;84.63
67697;BME280;54486;51.442;6.778;2023-02-28T06:10:47;102926.94;;;-1.58;84.54
67697;BME280;54486;51.442;6.778;2023-02-28T06:13:15;102924.16;;;-1.62;84.05
67697;BME280;54486;51.442;6.778;2023-02-28T06:15:42;102929.81;;;-1.66;84.79
67697;BME280;54486;51.442;6.778;2023-02-28T06:18:09;102928.75;;;-1.57;84.23
67697;BME280;54486;51.442;6.778;2023-02-28T06:20:36;102935.66;;;-1.56;83.81
67697;BME280;54486;51.442;6.778;2023-02-28T06:23:03;102933.44;;;-1.52;83.67
67697;BME280;54486;51.442;6.778;2023-02-28T06:25:30;102937.19;;;-1.58;83.64
67697;BME280;54486;51.442;6.778;2023-02-28T06:27:58;102943.66;;;-1.64;84.09
67697;BME280;54486;51.442;6.778;2023-02-28T06:30:26;102943.41;;;-1.67;83.80
67697;BME280;54486;51.442;6.778;2023-02-28T06:32:56;102942.28;;;-1.70;83.76
67697;BME280;54486;51.442;6.778;2023-02-28T06:35:23;102951.38;;;-1.74;83.56
67697;BME280;54486;51.442;6.778;2023-02-28T06:37:50;102946.03;;;-1.77;83.55
67697;BME280;54486;51.442;6.778;2023-02-28T06:40:17;102946.50;;;-1.71;83.30
67697;BME280;54486;51.442;6.778;2023-02-28T06:42:44;102952.63;;;-1.69;83.35
67697;BME280;54486;51.442;6.778;2023-02-28T06:45:11;102952.75;;;-1.67;82.88
67697;BME280;54486;51.442;6.778;2023-02-28T06:47:39;102953.88;;;-1.64;83.25
67697;BME280;54486;51.442;6.778;2023-02-28T06:50:11;102961.44;;;-1.65;82.84
67697;BME280;54486;51.442;6.778;2023-02-28T06:52:38;102959.47;;;-1.57;82.47
67697;BME280;54486;51.442;6.778;2023-02-28T06:55:05;102961.34;;;-1.55;82.36
67697;BME280;54486;51.442;6.778;2023-02-28T06:57:33;102963.25;;;-1.52;82.69
67697;BME280;54486;51.442;6.778;2023-02-28T07:00:02;102956.03;;;-1.46;82.73
67697;BME280;54486;51.442;6.778;2023-02-28T07:02:30;102963.31;;;-1.41;82.19
67697;BME280;54486;51.442;6.778;2023-02-28T07:04:57;102957.28;;;-1.41;81.92
67697;BME280;54486;51.442;6.778;2023-02-28T07:07:24;102965.72;;;-1.42;81.97
67697;BME280;54486;51.442;6.778;2023-02-28T07:09:51;102964.44;;;-1.37;82.14
67697;BME280;54486;51.442;6.778;2023-02-28T07:12:19;102959.53;;;-1.34;81.83
67697;BME280;54486;51.442;6.778;2023-02-28T07:14:46;102965.44;;;-1.35;81.24
67697;BME280;54486;51.442;6.778;2023-02-28T07:17:13;102966.44;;;-1.33;81.71
67697;BME280;54486;51.442;6.778;2023-02-28T07:19:40;102968.44;;;-1.29;81.65
67697;BME280;54486;51.442;6.778;2023-02-28T07:22:07;102970.47;;;-1.25;81.22
67697;BME280;54486;51.442;6.778;2023-02-28T07:24:34;102960.47;;;-1.22;81.22
67697;BME280;54486;51.442;6.778;2023-02-28T07:27:01;102964.00;;;-1.20;81.36
67697;BME280;54486;51.442;6.778;2023-02-28T07:29:28;102977.84;;;-1.18;81.12
67697;BME280;54486;51.442;6.778;2023-02-28T07:31:56;102972.28;;;-1.13;80.81
67697;BME280;54486;51.442;6.778;2023-02-28T07:34:24;102975.16;;;-1.08;80.84
67697;BME280;54486;51.442;6.778;2023-02-28T07:36:53;102977.19;;;-1.04;80.44
67697;BME280;54486;51.442;6.778;2023-02-28T07:39:20;102974.75;;;-1.02;80.22
67697;BME280;54486;51.442;6.778;2023-02-28T07:41:48;102981.22;;;-0.96;79.80
67697;BME280;54486;51.442;6.778;2023-02-28T07:44:16;102978.88;;;-0.93;79.86
67697;BME280;54486;51.442;6.778;2023-02-28T07:46:43;102980.34;;;-0.85;79.24
67697;BME280;54486;51.442;6.778;2023-02-28T07:49:09;102980.78;;;-0.79;79.26
67697;BME280;54486;51.442;6.778;2023-02-28T07:51:37;102983.69;;;-0.74;79.30
67697;BME280;54486;51.442;6.778;2023-02-28T07:54:04;102981.66;;;-0.67;79.23
67697;BME280;54486;51.442;6.778;2023-02-28T07:56:31;102981.88;;;-0.64;78.75
67697;BME280;54486;51.442;6.778;2023-02-28T07:58:58;102983.91;;;-0.60;78.01
67697;BME280;54486;51.442;6.778;2023-02-28T08:01:25;102981.00;;;-0.52;77.58
67697;BME280;54486;51.442;6.778;2023-02-28T08:03:52;102981.44;;;-0.46;77.40
67697;BME280;54486;51.442;6.778;2023-02-28T08:06:22;102986.13;;;-0.41;76.96
67697;BME280;54486;51.442;6.778;2023-02-28T08:08:50;102992.81;;;-0.31;77.04
67697;BME280;54486;51.442;6.778;2023-02-28T08:11:17;102986.22;;;-0.28;76.68
67697;BME280;54486;51.442;6.778;2023-02-28T08:13:44;102987.78;;;-0.18;76.58
67697;BME280;54486;51.442;6.778;2023-02-28T08:16:12;102988.31;;;-0.11;76.20
67697;BME280;54486;51.442;6.778;2023-02-28T08:18:49;102988.75;;;-0.05;75.88
67697;BME280;54486;51.442;6.778;2023-02-28T08:21:17;102983.06;;;-0.01;75.36
67697;BME280;54486;51.442;6.778;2023-02-28T08:23:46;102983.59;;;0.07;74.12
67697;BME280;54486;51.442;6.778;2023-02-28T08:26:14;102979.09;;;0.16;74.23
67697;BME280;54486;51.442;6.778;2023-02-28T08:28:40;102989.00;;;0.23;73.51
67697;BME280;54486;51.442;6.778;2023-02-28T08:31:12;102986.28;;;0.33;73.37
67697;BME280;54486;51.442;6.778;2023-02-28T08:33:40;102982.59;;;0.41;73.77
67697;BME280;54486;51.442;6.778;2023-02-28T08:36:08;102993.91;;;0.57;71.46
67697;BME280;54486;51.442;6.778;2023-02-28T08:38:35;102997.19;;;0.67;69.81
67697;BME280;54486;51.442;6.778;2023-02-28T08:41:04;102993.34;;;0.74;68.67
67697;BME280;54486;51.442;6.778;2023-02-28T08:43:33;102991.81;;;0.76;68.74
67697;BME280;54486;51.442;6.778;2023-02-28T08:46:01;102988.88;;;0.83;68.25
67697;BME280;54486;51.442;6.778;2023-02-28T08:48:29;102993.59;;;0.90;68.57
67697;BME280;54486;51.442;6.778;2023-02-28T08:51:04;102992.66;;;1.01;67.41
67697;BME280;54486;51.442;6.778;2023-02-28T08:53:36;102985.34;;;1.07;66.11
67697;BME280;54486;51.442;6.778;2023-02-28T08:56:07;102982.41;;;1.14;65.48
67697;BME280;54486;51.442;6.778;2023-02-28T08:58:34;102984.34;;;1.18;65.39
67697;BME280;54486;51.442;6.778;2023-02-28T09:01:07;102983.78;;;1.22;65.44
67697;BME280;54486;51.442;6.778;2023-02-28T09:03:35;102976.78;;;1.33;63.49
67697;BME280;54486;51.442;6.778;2023-02-28T09:06:02;102976.56;;;1.43;64.30
67697;BME280;54486;51.442;6.778;2023-02-28T09:08:29;102972.72;;;1.49;64.17
67697;BME280;54486;51.442;6.778;2023-02-28T09:10:57;102976.47;;;1.54;64.42
67697;BME280;54486;51.442;6.778;2023-02-28T09:13:29;102967.38;;;1.59;64.37
67697;BME280;54486;51.442;6.778;2023-02-28T09:15:59;102965.00;;;1.63;63.21
67697;BME280;54486;51.442;6.778;2023-02-28T09:18:27;102968.75;;;1.68;63.19
67697;BME280;54486;51.442;6.778;2023-02-28T09:21:02;102969.84;;;1.71;61.77
67697;BME280;54486;51.442;6.778;2023-02-28T09:23:38;102960.75;;;2.04;60.09
67697;BME280;54486;51.442;6.778;2023-02-28T09:26:05;102957.88;;;1.99;60.42
67697;BME280;54486;51.442;6.778;2023-02-28T09:28:32;102959.16;;;2.06;58.15
67697;BME280;54486;51.442;6.778;2023-02-28T09:30:59;102957.75;;;2.11;58.15
67697;BME280;54486;51.442;6.778;2023-02-28T09:33:26;102961.88;;;2.22;58.86
67697;BME280;54486;51.442;6.778;2023-02-28T09:35:57;102959.56;;;2.27;57.75
67697;BME280;54486;51.442;6.778;2023-02-28T09:38:28;102958.38;;;2.35;57.79
67697;BME280;54486;51.442;6.778;2023-02-28T09:41:00;102951.72;;;2.38;55.63
67697;BME280;54486;51.442;6.778;2023-02-28T09:43:29;102961.69;;;2.47;55.77
67697;BME280;54486;51.442;6.778;2023-02-28T09:46:06;102960.00;;;2.47;56.20
67697;BME280;54486;51.442;6.778;2023-02-28T09:48:39;102961.16;;;2.52;55.59
67697;BME280;54486;51.442;6.778;2023-02-28T09:51:15;102953.72;;;2.72;52.97
67697;BME280;54486;51.442;6.778;2023-02-28T09:53:51;102961.28;;;2.68;55.66
67697;BME280;54486;51.442;6.778;2023-02-28T09:56:31;102954.91;;;2.77;53.22
67697;BME280;54486;51.442;6.778;2023-02-28T10:06:52;102961.63;;;2.75;54.67
67697;BME280;54486;51.442;6.778;2023-02-28T10:09:24;102948.91;;;2.78;54.22
67697;BME280;54486;51.442;6.778;2023-02-28T10:11:53;102959.03;;;2.75;54.29
67697;BME280;54486;51.442;6.778;2023-02-28T10:14:26;102953.28;;;2.64;54.03
67697;BME280;54486;51.442;6.778;2023-02-28T10:16:55;102954.19;;;2.64;52.80
67697;BME280;54486;51.442;6.778;2023-02-28T10:19:27;102946.69;;;2.69;53.17
67697;BME280;54486;51.442;6.778;2023-02-28T10:22:00;102953.53;;;2.68;52.48
67697;BME280;54486;51.442;6.778;2023-02-28T10:27:20;102947.22;;;2.63;52.42
67697;BME280;54486;51.442;6.778;2023-02-28T10:29:50;102937.44;;;2.87;51.53
67697;BME280;54486;51.442;6.778;2023-02-28T10:32:19;102944.59;;;2.77;52.67
67697;BME280;54486;51.442;6.778;2023-02-28T10:34:52;102948.41;;;2.83;51.82
67697;BME280;54486;51.442;6.778;2023-02-28T10:37:21;102944.31;;;2.87;52.45
67697;BME280;54486;51.442;6.778;2023-02-28T10:39:48;102944.25;;;3.00;52.82
67697;BME280;54486;51.442;6.778;2023-02-28T10:42:25;102936.75;;;3.04;52.40
67697;BME280;54486;51.442;6.778;2023-02-28T10:45:12;102934.25;;;3.20;53.21
67697;BME280;54486;51.442;6.778;2023-02-28T10:48:42;102940.72;;;3.43;52.44
67697;BME280;54486;51.442;6.778;2023-02-28T10:50:37;102928.81;;;3.61;49.93
67697;BME280;54486;51.442;6.778;2023-02-28T10:53:15;102920.31;;;3.79;50.55
67697;BME280;54486;51.442;6.778;2023-02-28T10:55:46;102916.69;;;3.75;50.84
67697;BME280;54486;51.442;6.778;2023-02-28T10:58:24;102915.63;;;3.71;51.27
67697;BME280;54486;51.442;6.778;2023-02-28T11:00:51;102920.38;;;3.80;49.62
67697;BME280;54486;51.442;6.778;2023-02-28T11:03:30;102915.16;;;3.95;49.53
67697;BME280;54486;51.442;6.778;2023-02-28T11:05:59;102918.72;;;3.97;50.40
67697;BME280;54486;51.442;6.778;2023-02-28T11:08:43;102913.72;;;4.00;50.39
67697;BME280;54486;51.442;6.778;2023-02-28T11:11:14;102912.28;;;4.05;50.33
67697;BME280;54486;51.442;6.778;2023-02-28T11:13:44;102914.19;;;4.09;49.25
67697;BME280;54486;51.442;6.778;2023-02-28T11:16:12;102924.69;;;4.12;49.72
67697;BME280;54486;51.442;6.778;2023-02-28T11:18:46;102924.03;;;4.00;49.04
67697;BME280;54486;51.442;6.778;2023-02-28T11:21:16;102916.94;;;4.12;47.16
67697;BME280;54486;51.442;6.778;2023-02-28T11:23:49;102912.66;;;4.12;47.67
67697;BME280;54486;51.442;6.778;2023-02-28T11:26:35;102910.16;;;3.98;47.20
67697;BME280;54486;51.442;6.778;2023-02-28T11:29:21;102914.19;;;3.93;47.70
67697;BME280;54486;51.442;6.778;2023-02-28T11:32:01;102911.59;;;3.93;46.94
67697;BME280;54486;51.442;6.778;2023-02-28T11:34:30;102903.53;;;4.03;48.03
67697;BME280;54486;51.442;6.778;2023-02-28T11:36:57;102910.00;;;3.95;48.26
67697;BME280;54486;51.442;6.778;2023-02-28T11:39:25;102911.53;;;4.07;48.11
67697;BME280;54486;51.442;6.778;2023-02-28T11:55:19;102897.50;;;4.68;45.58
67697;BME280;54486;51.442;6.778;2023-02-28T12:00:19;102901.25;;;4.57;45.01
67697;BME280;54486;51.442;6.778;2023-02-28T12:02:56;102889.28;;;4.59;45.78
67697;BME280;54486;51.442;6.778;2023-02-28T12:05:29;102889.44;;;4.62;45.48
67697;BME280;54486;51.442;6.778;2023-02-28T12:08:04;102884.53;;;4.51;46.26
67697;BME280;54486;51.442;6.778;2023-02-28T12:11:16;102886.03;;;4.63;45.45
67697;BME280;54486;51.442;6.778;2023-02-28T12:13:29;102887.50;;;4.58;45.73
67697;BME280;54486;51.442;6.778;2023-02-28T12:16:18;102876.00;;;4.69;45.47
67697;BME280;54486;51.442;6.778;2023-02-28T12:21:35;102875.44;;;4.93;46.24
67697;BME280;54486;51.442;6.778;2023-02-28T12:26:51;102863.78;;;5.01;46.84
67697;BME280;54486;51.442;6.778;2023-02-28T12:29:29;102872.50;;;5.03;46.43
67697;BME280;54486;51.442;6.778;2023-02-28T12:32:04;102858.75;;;5.04;45.71
67697;BME280;54486;51.442;6.778;2023-02-28T12:34:33;102850.44;;;5.11;45.76
67697;BME280;54486;51.442;6.778;2023-02-28T12:37:04;102848.19;;;5.17;45.99
67697;BME280;54486;51.442;6.778;2023-02-28T12:39:37;102843.94;;;5.19;45.15
67697;BME280;54486;51.442;6.778;2023-02-28T12:42:29;102845.00;;;5.22;44.79
67697;BME280;54486;51.442;6.778;2023-02-28T12:45:01;102845.41;;;5.14;45.80
67697;BME280;54486;51.442;6.778;2023-02-28T12:47:29;102836.66;;;5.10;45.28
67697;BME280;54486;51.442;6.778;2023-02-28T12:49:57;102833.16;;;5.10;45.72
67697;BME280;54486;51.442;6.778;2023-02-28T12:52:28;102832.72;;;5.18;45.68
67697;BME280;54486;51.442;6.778;2023-02-28T13:00:14;102816.38;;;5.19;45.77
67697;BME280;54486;51.442;6.778;2023-02-28T13:10:44;102813.03;;;5.22;45.28
67697;BME280;54486;51.442;6.778;2023-02-28T13:13:17;102807.47;;;5.32;45.90
67697;BME280;54486;51.442;6.778;2023-02-28T13:18:44;102790.84;;;5.27;46.82
67697;BME280;54486;51.442;6.778;2023-02-28T13:21:28;102796.28;;;5.33;47.12
67697;BME280;54486;51.442;6.778;2023-02-28T13:23:57;102790.19;;;5.50;46.06
67697;BME280;54486;51.442;6.778;2023-02-28T13:32:18;102787.22;;;5.60;46.75
67697;BME280;54486;51.442;6.778;2023-02-28T13:34:28;102791.63;;;5.63;47.97
67697;BME280;54486;51.442;6.778;2023-02-28T13:52:46;102766.91;;;6.28;46.20
67697;BME280;54486;51.442;6.778;2023-02-28T13:55:22;102771.78;;;6.21;46.64
67697;BME280;54486;51.442;6.778;2023-02-28T14:00:35;102768.81;;;6.53;46.79
67697;BME280;54486;51.442;6.778;2023-02-28T14:06:07;102771.00;;;7.08;44.93
67697;BME280;54486;51.442;6.778;2023-02-28T14:08:35;102775.13;;;7.25;44.75
67697;BME280;54486;51.442;6.778;2023-02-28T14:11:06;102777.81;;;7.28;44.43
67697;BME280;54486;51.442;6.778;2023-02-28T14:13:37;102764.09;;;7.54;44.42
67697;BME280;54486;51.442;6.778;2023-02-28T14:16:06;102774.41;;;7.75;43.82
67697;BME280;54486;51.442;6.778;2023-02-28T14:18:34;102771.47;;;8.15;42.99
67697;BME280;54486;51.442;6.778;2023-02-28T14:21:08;102781.00;;;8.14;42.85
67697;BME280;54486;51.442;6.778;2023-02-28T14:26:07;102761.28;;;8.21;43.00
67697;BME280;54486;51.442;6.778;2023-02-28T14:28:45;102759.66;;;7.99;43.55
67697;BME280;54486;51.442;6.778;2023-02-28T14:31:16;102762.75;;;8.13;42.35
67697;BME280;54486;51.442;6.778;2023-02-28T14:41:39;102762.34;;;8.01;42.62
67697;BME280;54486;51.442;6.778;2023-02-28T14:47:03;102748.78;;;8.11;42.72
67697;BME280;54486;51.442;6.778;2023-02-28T14:49:36;102753.69;;;8.02;43.03
67697;BME280;54486;51.442;6.778;2023-02-28T14:52:06;102751.41;;;8.11;43.65
67697;BME280;54486;51.442;6.778;2023-02-28T14:54:39;102750.78;;;8.18;43.88
67697;BME280;54486;51.442;6.778;2023-02-28T14:57:12;102745.69;;;8.21;43.68
67697;BME280;54486;51.442;6.778;2023-02-28T14:59:56;102745.69;;;8.46;42.74
67697;BME280;54486;51.442;6.778;2023-02-28T15:02:24;102748.50;;;8.52;42.82
67697;BME280;54486;51.442;6.778;2023-02-28T15:04:56;102743.09;;;8.73;42.01
67697;BME280;54486;51.442;6.778;2023-02-28T15:07:25;102744.28;;;8.82;41.80
67697;BME280;54486;51.442;6.778;2023-02-28T15:10:08;102741.03;;;8.63;41.23